sensor_id;sensor_type;location;lat;lon;timestamp;temperature;humidity
76102;SHT30;64830;46.910;6.354;2023-06-01T00:02:01;15.10;66.06
76102;SHT30;64830;46.910;6.354;2023-06-01T00:04:27;15.08;65.92
76102;SHT30;64830;46.910;6.354;2023-06-01T00:06:52;15.05;65.75
76102;SHT30;64830;46.910;6.354;2023-06-01T00:09:17;15.05;66.48
76102;SHT30;64830;46.910;6.354;2023-06-01T00:11:43;14.97;65.96
76102;SHT30;64830;46.910;6.354;2023-06-01T00:14:09;14.90;66.28
76102;SHT30;64830;46.910;6.354;2023-06-01T00:16:34;14.91;66.34
76102;SHT30;64830;46.910;6.354;2023-06-01T00:19:00;14.85;66.31
76102;SHT30;64830;46.910;6.354;2023-06-01T00:21:29;14.85;66.07
76102;SHT30;64830;46.910;6.354;2023-06-01T00:23:57;14.81;66.39
76102;SHT30;64830;46.910;6.354;2023-06-01T00:26:23;14.76;66.51
76102;SHT30;64830;46.910;6.354;2023-06-01T00:28:48;14.72;66.23
76102;SHT30;64830;46.910;6.354;2023-06-01T00:31:14;14.72;66.47
76102;SHT30;64830;46.910;6.354;2023-06-01T00:33:39;14.74;66.78
76102;SHT30;64830;46.910;6.354;2023-06-01T00:36:05;14.72;66.71
76102;SHT30;64830;46.910;6.354;2023-06-01T00:38:30;14.70;66.66
76102;SHT30;64830;46.910;6.354;2023-06-01T00:40:56;14.63;66.25
76102;SHT30;64830;46.910;6.354;2023-06-01T00:43:21;14.53;66.71
76102;SHT30;64830;46.910;6.354;2023-06-01T00:45:47;14.38;66.54
76102;SHT30;64830;46.910;6.354;2023-06-01T00:48:14;14.26;66.50
76102;SHT30;64830;46.910;6.354;2023-06-01T00:50:40;14.17;66.64
76102;SHT30;64830;46.910;6.354;2023-06-01T00:53:09;14.10;67.30
76102;SHT30;64830;46.910;6.354;2023-06-01T00:55:36;14.00;67.25
76102;SHT30;64830;46.910;6.354;2023-06-01T00:58:02;13.97;67.09
76102;SHT30;64830;46.910;6.354;2023-06-01T01:00:29;13.97;67.17
76102;SHT30;64830;46.910;6.354;2023-06-01T01:02:54;13.93;67.00
76102;SHT30;64830;46.910;6.354;2023-06-01T01:05:22;13.90;67.10
76102;SHT30;64830;46.910;6.354;2023-06-01T01:07:59;13.80;67.75
76102;SHT30;64830;46.910;6.354;2023-06-01T01:10:50;13.74;67.59
76102;SHT30;64830;46.910;6.354;2023-06-01T01:13:21;13.71;67.46
76102;SHT30;64830;46.910;6.354;2023-06-01T01:21:28;13.69;67.70
76102;SHT30;64830;46.910;6.354;2023-06-01T01:24:43;13.70;68.29
76102;SHT30;64830;46.910;6.354;2023-06-01T01:27:59;13.71;68.24
76102;SHT30;64830;46.910;6.354;2023-06-01T01:30:03;13.71;68.21
76102;SHT30;64830;46.910;6.354;2023-06-01T01:32:32;13.76;68.50
76102;SHT30;64830;46.910;6.354;2023-06-01T01:34:58;13.71;68.27
76102;SHT30;64830;46.910;6.354;2023-06-01T01:37:25;13.69;67.58
76102;SHT30;64830;46.910;6.354;2023-06-01T01:39:50;13.62;67.85
76102;SHT30;64830;46.910;6.354;2023-06-01T01:42:16;13.56;67.88
76102;SHT30;64830;46.910;6.354;2023-06-01T01:44:41;13.56;67.94
76102;SHT30;64830;46.910;6.354;2023-06-01T01:47:12;13.56;67.80
76102;SHT30;64830;46.910;6.354;2023-06-01T01:49:43;13.58;67.52
76102;SHT30;64830;46.910;6.354;2023-06-01T01:52:18;13.55;67.35
76102;SHT30;64830;46.910;6.354;2023-06-01T01:54:47;13.53;67.21
76102;SHT30;64830;46.910;6.354;2023-06-01T01:57:15;13.45;67.00
76102;SHT30;64830;46.910;6.354;2023-06-01T01:59:42;13.41;66.93
76102;SHT30;64830;46.910;6.354;2023-06-01T02:02:08;13.41;66.85
76102;SHT30;64830;46.910;6.354;2023-06-01T02:04:38;13.35;67.12
76102;SHT30;64830;46.910;6.354;2023-06-01T02:07:04;13.24;67.00
76102;SHT30;64830;46.910;6.354;2023-06-01T02:09:30;13.21;67.05
76102;SHT30;64830;46.910;6.354;2023-06-01T02:11:56;13.15;67.24
76102;SHT30;64830;46.910;6.354;2023-06-01T02:14:21;13.14;67.11
76102;SHT30;64830;46.910;6.354;2023-06-01T02:16:47;13.08;66.91
76102;SHT30;64830;46.910;6.354;2023-06-01T02:19:12;13.00;67.06
76102;SHT30;64830;46.910;6.354;2023-06-01T02:21:41;12.93;67.33
76102;SHT30;64830;46.910;6.354;2023-06-01T02:24:07;12.87;67.26
76102;SHT30;64830;46.910;6.354;2023-06-01T02:26:34;12.84;67.78
76102;SHT30;64830;46.910;6.354;2023-06-01T02:29:00;12.77;67.35
76102;SHT30;64830;46.910;6.354;2023-06-01T02:31:27;12.79;67.35
76102;SHT30;64830;46.910;6.354;2023-06-01T02:33:53;12.83;67.55
76102;SHT30;64830;46.910;6.354;2023-06-01T02:36:18;12.84;67.98
76102;SHT30;64830;46.910;6.354;2023-06-01T02:38:44;12.84;67.88
76102;SHT30;64830;46.910;6.354;2023-06-01T02:41:11;12.83;67.96
76102;SHT30;64830;46.910;6.354;2023-06-01T02:43:37;12.84;67.91
76102;SHT30;64830;46.910;6.354;2023-06-01T02:46:02;12.84;67.90
76102;SHT30;64830;46.910;6.354;2023-06-01T02:48:28;12.88;68.11
76102;SHT30;64830;46.910;6.354;2023-06-01T02:50:54;12.88;67.91
76102;SHT30;64830;46.910;6.354;2023-06-01T02:53:20;12.88;67.68
76102;SHT30;64830;46.910;6.354;2023-06-01T02:55:46;12.81;67.94
76102;SHT30;64830;46.910;6.354;2023-06-01T02:58:11;12.84;67.83
76102;SHT30;64830;46.910;6.354;2023-06-01T03:00:43;12.83;67.87
76102;SHT30;64830;46.910;6.354;2023-06-01T03:03:08;12.84;68.03
76102;SHT30;64830;46.910;6.354;2023-06-01T03:05:34;12.87;67.94
76102;SHT30;64830;46.910;6.354;2023-06-01T03:08:03;12.88;67.83
76102;SHT30;64830;46.910;6.354;2023-06-01T03:10:29;12.88;67.77
76102;SHT30;64830;46.910;6.354;2023-06-01T03:12:54;12.90;67.76
76102;SHT30;64830;46.910;6.354;2023-06-01T03:15:20;12.90;67.67
76102;SHT30;64830;46.910;6.354;2023-06-01T03:17:45;12.90;67.73
76102;SHT30;64830;46.910;6.354;2023-06-01T03:20:11;12.87;67.59
76102;SHT30;64830;46.910;6.354;2023-06-01T03:22:43;12.84;67.62
76102;SHT30;64830;46.910;6.354;2023-06-01T03:25:09;12.83;67.49
76102;SHT30;64830;46.910;6.354;2023-06-01T03:27:38;12.73;67.82
76102;SHT30;64830;46.910;6.354;2023-06-01T03:30:03;12.64;68.08
76102;SHT30;64830;46.910;6.354;2023-06-01T03:32:29;12.53;68.33
76102;SHT30;64830;46.910;6.354;2023-06-01T03:34:55;12.45;68.43
76102;SHT30;64830;46.910;6.354;2023-06-01T03:37:21;12.46;68.65
76102;SHT30;64830;46.910;6.354;2023-06-01T03:39:47;12.48;68.55
76102;SHT30;64830;46.910;6.354;2023-06-01T03:42:12;12.48;68.24
76102;SHT30;64830;46.910;6.354;2023-06-01T03:44:39;12.45;68.29
76102;SHT30;64830;46.910;6.354;2023-06-01T03:47:06;12.34;67.77
76102;SHT30;64830;46.910;6.354;2023-06-01T03:49:32;12.32;67.91
76102;SHT30;64830;46.910;6.354;2023-06-01T03:51:57;12.28;67.92
76102;SHT30;64830;46.910;6.354;2023-06-01T03:54:23;12.17;67.94
76102;SHT30;64830;46.910;6.354;2023-06-01T03:56:48;12.11;68.12
76102;SHT30;64830;46.910;6.354;2023-06-01T03:59:14;12.08;68.22
76102;SHT30;64830;46.910;6.354;2023-06-01T04:01:40;12.08;68.30
76102;SHT30;64830;46.910;6.354;2023-06-01T04:04:08;12.08;68.42
76102;SHT30;64830;46.910;6.354;2023-06-01T04:06:36;12.08;68.57
76102;SHT30;64830;46.910;6.354;2023-06-01T04:09:02;12.10;68.48
76102;SHT30;64830;46.910;6.354;2023-06-01T04:11:34;12.15;68.53
76102;SHT30;64830;46.910;6.354;2023-06-01T04:14:00;12.18;68.82
76102;SHT30;64830;46.910;6.354;2023-06-01T04:16:26;12.21;68.96
76102;SHT30;64830;46.910;6.354;2023-06-01T04:18:51;12.25;69.10
76102;SHT30;64830;46.910;6.354;2023-06-01T04:21:20;12.25;69.51
76102;SHT30;64830;46.910;6.354;2023-06-01T04:23:45;12.22;69.44
76102;SHT30;64830;46.910;6.354;2023-06-01T04:26:11;12.26;69.32
76102;SHT30;64830;46.910;6.354;2023-06-01T04:28:37;12.28;69.29
76102;SHT30;64830;46.910;6.354;2023-06-01T04:31:09;12.25;69.58
76102;SHT30;64830;46.910;6.354;2023-06-01T04:33:44;12.25;69.53
76102;SHT30;64830;46.910;6.354;2023-06-01T04:36:13;12.26;69.23
76102;SHT30;64830;46.910;6.354;2023-06-01T04:38:41;12.29;69.09
76102;SHT30;64830;46.910;6.354;2023-06-01T04:41:09;12.34;69.04
76102;SHT30;64830;46.910;6.354;2023-06-01T04:43:36;12.38;69.52
76102;SHT30;64830;46.910;6.354;2023-06-01T04:46:05;12.38;69.48
76102;SHT30;64830;46.910;6.354;2023-06-01T04:48:31;12.45;70.23
76102;SHT30;64830;46.910;6.354;2023-06-01T04:50:57;12.48;70.18
76102;SHT30;64830;46.910;6.354;2023-06-01T04:53:24;12.52;69.60
76102;SHT30;64830;46.910;6.354;2023-06-01T04:55:49;12.57;69.43
76102;SHT30;64830;46.910;6.354;2023-06-01T04:58:15;12.60;69.32
76102;SHT30;64830;46.910;6.354;2023-06-01T05:00:41;12.67;68.90
76102;SHT30;64830;46.910;6.354;2023-06-01T05:03:06;12.69;68.72
76102;SHT30;64830;46.910;6.354;2023-06-01T05:05:32;12.77;68.62
76102;SHT30;64830;46.910;6.354;2023-06-01T05:07:58;12.83;68.96
76102;SHT30;64830;46.910;6.354;2023-06-01T05:10:23;12.91;68.91
76102;SHT30;64830;46.910;6.354;2023-06-01T05:12:48;12.97;69.00
76102;SHT30;64830;46.910;6.354;2023-06-01T05:15:14;13.07;68.66
76102;SHT30;64830;46.910;6.354;2023-06-01T05:17:41;13.15;67.70
76102;SHT30;64830;46.910;6.354;2023-06-01T05:20:08;13.25;66.64
76102;SHT30;64830;46.910;6.354;2023-06-01T05:22:34;13.31;66.92
76102;SHT30;64830;46.910;6.354;2023-06-01T05:25:01;13.39;66.50
76102;SHT30;64830;46.910;6.354;2023-06-01T05:27:26;13.49;66.42
76102;SHT30;64830;46.910;6.354;2023-06-01T05:29:52;13.60;66.15
76102;SHT30;64830;46.910;6.354;2023-06-01T05:32:17;13.70;65.91
76102;SHT30;64830;46.910;6.354;2023-06-01T05:34:43;13.86;65.82
76102;SHT30;64830;46.910;6.354;2023-06-01T05:37:08;14.01;65.74
76102;SHT30;64830;46.910;6.354;2023-06-01T05:39:33;14.15;65.42
76102;SHT30;64830;46.910;6.354;2023-06-01T05:41:59;14.29;65.32
76102;SHT30;64830;46.910;6.354;2023-06-01T05:44:25;14.43;65.45
76102;SHT30;64830;46.910;6.354;2023-06-01T05:46:51;14.55;65.19
76102;SHT30;64830;46.910;6.354;2023-06-01T05:49:18;14.72;65.09
76102;SHT30;64830;46.910;6.354;2023-06-01T05:51:43;14.85;64.38
76102;SHT30;64830;46.910;6.354;2023-06-01T05:54:09;14.95;64.42
76102;SHT30;64830;46.910;6.354;2023-06-01T05:56:35;15.07;64.51
76102;SHT30;64830;46.910;6.354;2023-06-01T05:59:02;15.18;64.35
76102;SHT30;64830;46.910;6.354;2023-06-01T06:01:29;15.36;63.75
76102;SHT30;64830;46.910;6.354;2023-06-01T06:03:54;15.50;63.58
76102;SHT30;64830;46.910;6.354;2023-06-01T06:06:20;15.66;63.47
76102;SHT30;64830;46.910;6.354;2023-06-01T06:08:47;15.79;63.43
76102;SHT30;64830;46.910;6.354;2023-06-01T06:11:13;15.94;63.12
76102;SHT30;64830;46.910;6.354;2023-06-01T06:13:38;16.08;62.35
76102;SHT30;64830;46.910;6.354;2023-06-01T06:16:04;16.19;62.94
76102;SHT30;64830;46.910;6.354;2023-06-01T06:18:29;16.38;62.29
76102;SHT30;64830;46.910;6.354;2023-06-01T06:20:54;16.49;62.11
76102;SHT30;64830;46.910;6.354;2023-06-01T06:23:20;16.59;62.01
76102;SHT30;64830;46.910;6.354;2023-06-01T06:25:46;16.73;61.81
76102;SHT30;64830;46.910;6.354;2023-06-01T06:28:13;16.84;61.25
76102;SHT30;64830;46.910;6.354;2023-06-01T06:30:38;16.98;60.69
76102;SHT30;64830;46.910;6.354;2023-06-01T06:33:04;17.12;60.46
76102;SHT30;64830;46.910;6.354;2023-06-01T06:35:29;17.25;60.34
76102;SHT30;64830;46.910;6.354;2023-06-01T06:37:54;17.38;59.03
76102;SHT30;64830;46.910;6.354;2023-06-01T06:40:20;17.50;59.49
76102;SHT30;64830;46.910;6.354;2023-06-01T06:42:45;17.63;58.37
76102;SHT30;64830;46.910;6.354;2023-06-01T06:45:11;17.79;58.76
76102;SHT30;64830;46.910;6.354;2023-06-01T06:47:37;17.96;58.64
76102;SHT30;64830;46.910;6.354;2023-06-01T06:50:02;18.09;57.69
76102;SHT30;64830;46.910;6.354;2023-06-01T06:52:28;18.18;57.57
76102;SHT30;64830;46.910;6.354;2023-06-01T06:54:53;18.32;57.66
76102;SHT30;64830;46.910;6.354;2023-06-01T06:57:19;18.46;56.95
76102;SHT30;64830;46.910;6.354;2023-06-01T06:59:44;18.60;57.33
76102;SHT30;64830;46.910;6.354;2023-06-01T07:02:10;18.71;57.18
76102;SHT30;64830;46.910;6.354;2023-06-01T07:04:35;18.83;56.83
76102;SHT30;64830;46.910;6.354;2023-06-01T07:07:01;18.86;56.92
76102;SHT30;64830;46.910;6.354;2023-06-01T07:09:29;18.86;57.08
76102;SHT30;64830;46.910;6.354;2023-06-01T07:11:54;18.87;57.01
76102;SHT30;64830;46.910;6.354;2023-06-01T07:14:19;18.91;57.56
76102;SHT30;64830;46.910;6.354;2023-06-01T07:16:46;18.95;57.05
76102;SHT30;64830;46.910;6.354;2023-06-01T07:19:11;19.05;57.33
76102;SHT30;64830;46.910;6.354;2023-06-01T07:21:37;19.18;57.39
76102;SHT30;64830;46.910;6.354;2023-06-01T07:24:04;19.25;57.66
76102;SHT30;64830;46.910;6.354;2023-06-01T07:26:30;19.35;56.42
76102;SHT30;64830;46.910;6.354;2023-06-01T07:28:55;19.42;56.68
76102;SHT30;64830;46.910;6.354;2023-06-01T07:31:22;19.57;57.26
76102;SHT30;64830;46.910;6.354;2023-06-01T07:33:48;19.71;56.70
76102;SHT30;64830;46.910;6.354;2023-06-01T07:36:13;19.80;56.55
76102;SHT30;64830;46.910;6.354;2023-06-01T07:38:39;19.76;55.58
76102;SHT30;64830;46.910;6.354;2023-06-01T07:41:05;19.76;55.40
76102;SHT30;64830;46.910;6.354;2023-06-01T07:43:31;19.76;54.30
76102;SHT30;64830;46.910;6.354;2023-06-01T07:45:56;19.87;54.61
76102;SHT30;64830;46.910;6.354;2023-06-01T07:48:22;19.94;53.00
76102;SHT30;64830;46.910;6.354;2023-06-01T07:50:48;20.01;52.79
76102;SHT30;64830;46.910;6.354;2023-06-01T07:53:16;20.07;51.34
76102;SHT30;64830;46.910;6.354;2023-06-01T07:55:42;20.14;50.99
76102;SHT30;64830;46.910;6.354;2023-06-01T07:58:09;20.18;50.97
76102;SHT30;64830;46.910;6.354;2023-06-01T08:00:34;20.25;52.01
76102;SHT30;64830;46.910;6.354;2023-06-01T08:03:01;20.25;52.41
76102;SHT30;64830;46.910;6.354;2023-06-01T08:05:33;20.26;52.96
76102;SHT30;64830;46.910;6.354;2023-06-01T08:07:58;20.32;53.18
76102;SHT30;64830;46.910;6.354;2023-06-01T08:10:24;20.38;53.34
76102;SHT30;64830;46.910;6.354;2023-06-01T08:12:50;20.42;53.38
76102;SHT30;64830;46.910;6.354;2023-06-01T08:15:18;20.45;53.80
76102;SHT30;64830;46.910;6.354;2023-06-01T08:17:45;20.60;53.95
76102;SHT30;64830;46.910;6.354;2023-06-01T08:20:10;20.69;53.74
76102;SHT30;64830;46.910;6.354;2023-06-01T08:22:37;20.79;53.54
76102;SHT30;64830;46.910;6.354;2023-06-01T08:25:03;20.88;53.55
76102;SHT30;64830;46.910;6.354;2023-06-01T08:27:29;20.95;53.41
76102;SHT30;64830;46.910;6.354;2023-06-01T08:29:54;21.04;53.51
76102;SHT30;64830;46.910;6.354;2023-06-01T08:32:20;21.08;52.85
76102;SHT30;64830;46.910;6.354;2023-06-01T08:34:46;21.11;53.05
76102;SHT30;64830;46.910;6.354;2023-06-01T08:37:15;21.12;52.79
76102;SHT30;64830;46.910;6.354;2023-06-01T08:39:40;21.18;53.15
76102;SHT30;64830;46.910;6.354;2023-06-01T08:44:38;21.32;52.68
76102;SHT30;64830;46.910;6.354;2023-06-01T08:47:04;21.43;52.53
76102;SHT30;64830;46.910;6.354;2023-06-01T08:49:31;21.46;52.30
76102;SHT30;64830;46.910;6.354;2023-06-01T08:52:00;21.52;52.49
76102;SHT30;64830;46.910;6.354;2023-06-01T08:54:26;21.67;53.09
76102;SHT30;64830;46.910;6.354;2023-06-01T08:56:53;21.77;51.91
76102;SHT30;64830;46.910;6.354;2023-06-01T08:59:18;21.77;52.58
76102;SHT30;64830;46.910;6.354;2023-06-01T09:01:45;21.87;52.43
76102;SHT30;64830;46.910;6.354;2023-06-01T09:04:12;21.96;52.58
76102;SHT30;64830;46.910;6.354;2023-06-01T09:06:40;22.14;53.14
76102;SHT30;64830;46.910;6.354;2023-06-01T09:09:06;22.14;52.16
76102;SHT30;64830;46.910;6.354;2023-06-01T09:11:36;22.18;52.13
76102;SHT30;64830;46.910;6.354;2023-06-01T09:14:01;22.29;50.60
76102;SHT30;64830;46.910;6.354;2023-06-01T09:16:38;22.39;51.48
76102;SHT30;64830;46.910;6.354;2023-06-01T09:19:03;22.52;51.11
76102;SHT30;64830;46.910;6.354;2023-06-01T09:21:29;22.60;52.25
76102;SHT30;64830;46.910;6.354;2023-06-01T09:23:54;22.67;49.06
76102;SHT30;64830;46.910;6.354;2023-06-01T09:26:26;22.74;48.04
76102;SHT30;64830;46.910;6.354;2023-06-01T09:31:46;22.91;47.20
76102;SHT30;64830;46.910;6.354;2023-06-01T09:34:17;22.98;49.57
76102;SHT30;64830;46.910;6.354;2023-06-01T09:36:50;22.93;43.38
76102;SHT30;64830;46.910;6.354;2023-06-01T09:39:18;22.94;41.04
76102;SHT30;64830;46.910;6.354;2023-06-01T09:42:03;23.05;43.03
76102;SHT30;64830;46.910;6.354;2023-06-01T09:44:36;23.15;43.24
76102;SHT30;64830;46.910;6.354;2023-06-01T09:47:03;23.28;41.96
76102;SHT30;64830;46.910;6.354;2023-06-01T09:49:36;23.38;42.93
76102;SHT30;64830;46.910;6.354;2023-06-01T09:54:33;23.57;43.31
76102;SHT30;64830;46.910;6.354;2023-06-01T09:57:01;23.67;42.67
76102;SHT30;64830;46.910;6.354;2023-06-01T09:59:28;23.69;41.36
76102;SHT30;64830;46.910;6.354;2023-06-01T10:01:58;23.60;41.07
76102;SHT30;64830;46.910;6.354;2023-06-01T10:04:25;23.59;41.90
76102;SHT30;64830;46.910;6.354;2023-06-01T10:06:53;23.56;40.91
76102;SHT30;64830;46.910;6.354;2023-06-01T10:09:20;23.56;40.86
76102;SHT30;64830;46.910;6.354;2023-06-01T10:11:48;23.67;41.69
76102;SHT30;64830;46.910;6.354;2023-06-01T10:14:14;23.74;40.78
76102;SHT30;64830;46.910;6.354;2023-06-01T10:16:41;23.78;41.03
76102;SHT30;64830;46.910;6.354;2023-06-01T10:19:11;23.84;41.17
76102;SHT30;64830;46.910;6.354;2023-06-01T10:21:37;23.93;40.85
76102;SHT30;64830;46.910;6.354;2023-06-01T10:24:05;23.87;41.08
76102;SHT30;64830;46.910;6.354;2023-06-01T10:26:38;23.80;41.03
76102;SHT30;64830;46.910;6.354;2023-06-01T10:29:07;23.81;40.70
76102;SHT30;64830;46.910;6.354;2023-06-01T10:34:03;23.80;41.38
76102;SHT30;64830;46.910;6.354;2023-06-01T10:39:29;23.77;41.05
76102;SHT30;64830;46.910;6.354;2023-06-01T10:42:41;23.69;41.22
76102;SHT30;64830;46.910;6.354;2023-06-01T11:03:03;23.63;42.11
76102;SHT30;64830;46.910;6.354;2023-06-01T11:05:50;23.77;41.42
76102;SHT30;64830;46.910;6.354;2023-06-01T11:13:24;23.98;42.74
76102;SHT30;64830;46.910;6.354;2023-06-01T11:18:49;24.08;42.21
76102;SHT30;64830;46.910;6.354;2023-06-01T11:21:23;24.00;42.48
76102;SHT30;64830;46.910;6.354;2023-06-01T11:23:50;23.93;42.41
76102;SHT30;64830;46.910;6.354;2023-06-01T11:26:18;23.81;42.58
76102;SHT30;64830;46.910;6.354;2023-06-01T11:28:45;23.66;43.32
76102;SHT30;64830;46.910;6.354;2023-06-01T11:31:12;23.55;42.85
76102;SHT30;64830;46.910;6.354;2023-06-01T11:33:39;23.50;42.53
76102;SHT30;64830;46.910;6.354;2023-06-01T11:36:08;23.74;42.46
76102;SHT30;64830;46.910;6.354;2023-06-01T11:38:39;24.04;42.80
76102;SHT30;64830;46.910;6.354;2023-06-01T11:41:05;24.32;42.53
76102;SHT30;64830;46.910;6.354;2023-06-01T11:43:32;24.40;41.75
76102;SHT30;64830;46.910;6.354;2023-06-01T11:46:02;24.35;41.60
76102;SHT30;64830;46.910;6.354;2023-06-01T11:48:27;24.14;42.17
76102;SHT30;64830;46.910;6.354;2023-06-01T11:50:53;23.98;41.59
76102;SHT30;64830;46.910;6.354;2023-06-01T11:53:23;23.85;41.42
76102;SHT30;64830;46.910;6.354;2023-06-01T11:55:50;23.77;42.44
76102;SHT30;64830;46.910;6.354;2023-06-01T12:00:47;23.60;42.09
76102;SHT30;64830;46.910;6.354;2023-06-01T12:03:13;23.59;42.56
76102;SHT30;64830;46.910;6.354;2023-06-01T12:05:39;23.53;42.29
76102;SHT30;64830;46.910;6.354;2023-06-01T12:08:08;23.57;42.80
76102;SHT30;64830;46.910;6.354;2023-06-01T12:10:41;23.78;42.48
76102;SHT30;64830;46.910;6.354;2023-06-01T12:13:07;24.07;42.13
76102;SHT30;64830;46.910;6.354;2023-06-01T12:15:34;24.25;41.98
76102;SHT30;64830;46.910;6.354;2023-06-01T12:17:59;24.35;41.87
76102;SHT30;64830;46.910;6.354;2023-06-01T12:20:51;24.43;41.68
76102;SHT30;64830;46.910;6.354;2023-06-01T12:23:17;24.45;41.63
76102;SHT30;64830;46.910;6.354;2023-06-01T12:25:49;24.48;41.43
76102;SHT30;64830;46.910;6.354;2023-06-01T12:28:15;24.57;41.46
76102;SHT30;64830;46.910;6.354;2023-06-01T12:30:42;24.70;41.92
76102;SHT30;64830;46.910;6.354;2023-06-01T12:33:07;24.94;42.95
76102;SHT30;64830;46.910;6.354;2023-06-01T12:35:47;25.10;41.49
76102;SHT30;64830;46.910;6.354;2023-06-01T12:38:13;25.08;41.11
76102;SHT30;64830;46.910;6.354;2023-06-01T12:40:39;25.00;41.54
76102;SHT30;64830;46.910;6.354;2023-06-01T12:43:05;24.93;41.12
76102;SHT30;64830;46.910;6.354;2023-06-01T12:45:39;24.79;41.22
76102;SHT30;64830;46.910;6.354;2023-06-01T12:48:05;24.56;41.09
76102;SHT30;64830;46.910;6.354;2023-06-01T12:50:31;24.36;41.29
76102;SHT30;64830;46.910;6.354;2023-06-01T12:52:56;24.21;41.58
76102;SHT30;64830;46.910;6.354;2023-06-01T12:55:22;24.08;41.26
76102;SHT30;64830;46.910;6.354;2023-06-01T12:57:54;23.94;41.77
76102;SHT30;64830;46.910;6.354;2023-06-01T13:00:20;24.04;43.36
76102;SHT30;64830;46.910;6.354;2023-06-01T13:02:46;24.21;41.92
76102;SHT30;64830;46.910;6.354;2023-06-01T13:05:16;24.32;42.32
76102;SHT30;64830;46.910;6.354;2023-06-01T13:07:43;24.42;41.93
76102;SHT30;64830;46.910;6.354;2023-06-01T13:10:10;24.49;42.55
76102;SHT30;64830;46.910;6.354;2023-06-01T13:12:35;24.48;41.85
76102;SHT30;64830;46.910;6.354;2023-06-01T13:15:01;24.45;41.71
76102;SHT30;64830;46.910;6.354;2023-06-01T13:17:28;24.36;41.90
76102;SHT30;64830;46.910;6.354;2023-06-01T13:19:53;24.33;42.47
76102;SHT30;64830;46.910;6.354;2023-06-01T13:22:19;24.24;42.14
76102;SHT30;64830;46.910;6.354;2023-06-01T13:24:46;24.17;42.77
76102;SHT30;64830;46.910;6.354;2023-06-01T13:27:11;24.08;42.16
76102;SHT30;64830;46.910;6.354;2023-06-01T13:29:37;24.02;42.23
76102;SHT30;64830;46.910;6.354;2023-06-01T13:32:02;23.94;42.38
76102;SHT30;64830;46.910;6.354;2023-06-01T13:34:28;23.94;42.22
76102;SHT30;64830;46.910;6.354;2023-06-01T13:36:53;23.96;41.98
76102;SHT30;64830;46.910;6.354;2023-06-01T13:39:19;23.93;42.09
76102;SHT30;64830;46.910;6.354;2023-06-01T13:41:44;24.01;42.57
76102;SHT30;64830;46.910;6.354;2023-06-01T13:44:10;24.10;42.20
76102;SHT30;64830;46.910;6.354;2023-06-01T13:46:35;24.14;42.83
76102;SHT30;64830;46.910;6.354;2023-06-01T13:49:01;24.15;42.43
76102;SHT30;64830;46.910;6.354;2023-06-01T13:51:27;24.19;42.54
76102;SHT30;64830;46.910;6.354;2023-06-01T13:53:53;24.17;42.38
76102;SHT30;64830;46.910;6.354;2023-06-01T13:56:18;24.19;41.60
76102;SHT30;64830;46.910;6.354;2023-06-01T13:58:46;24.18;44.50
76102;SHT30;64830;46.910;6.354;2023-06-01T14:01:11;24.12;43.50
76102;SHT30;64830;46.910;6.354;2023-06-01T14:03:37;24.05;42.95
76102;SHT30;64830;46.910;6.354;2023-06-01T14:06:02;23.93;45.82
76102;SHT30;64830;46.910;6.354;2023-06-01T14:08:28;23.78;47.84
76102;SHT30;64830;46.910;6.354;2023-06-01T14:10:53;23.69;50.47
76102;SHT30;64830;46.910;6.354;2023-06-01T14:13:19;23.45;52.64
76102;SHT30;64830;46.910;6.354;2023-06-01T14:15:47;23.35;52.48
76102;SHT30;64830;46.910;6.354;2023-06-01T14:18:12;23.29;53.84
76102;SHT30;64830;46.910;6.354;2023-06-01T14:20:38;23.21;53.70
76102;SHT30;64830;46.910;6.354;2023-06-01T14:23:03;23.23;55.50
76102;SHT30;64830;46.910;6.354;2023-06-01T14:25:29;23.31;54.69
76102;SHT30;64830;46.910;6.354;2023-06-01T14:27:55;23.41;56.81
76102;SHT30;64830;46.910;6.354;2023-06-01T14:30:20;23.56;56.71
76102;SHT30;64830;46.910;6.354;2023-06-01T14:32:46;23.70;57.00
76102;SHT30;64830;46.910;6.354;2023-06-01T14:35:11;23.90;57.04
76102;SHT30;64830;46.910;6.354;2023-06-01T14:37:42;24.07;57.75
76102;SHT30;64830;46.910;6.354;2023-06-01T14:40:08;24.26;57.50
76102;SHT30;64830;46.910;6.354;2023-06-01T14:42:33;24.43;55.12
76102;SHT30;64830;46.910;6.354;2023-06-01T14:44:59;24.53;51.39
76102;SHT30;64830;46.910;6.354;2023-06-01T14:47:24;24.49;51.38
76102;SHT30;64830;46.910;6.354;2023-06-01T14:49:50;24.49;48.28
76102;SHT30;64830;46.910;6.354;2023-06-01T14:52:15;24.43;51.14
76102;SHT30;64830;46.910;6.354;2023-06-01T14:54:41;24.36;48.90
76102;SHT30;64830;46.910;6.354;2023-06-01T14:57:06;24.28;48.01
76102;SHT30;64830;46.910;6.354;2023-06-01T14:59:32;24.26;46.92
76102;SHT30;64830;46.910;6.354;2023-06-01T15:02:01;24.18;46.10
76102;SHT30;64830;46.910;6.354;2023-06-01T15:04:29;24.12;46.76
76102;SHT30;64830;46.910;6.354;2023-06-01T15:06:54;24.11;44.21
76102;SHT30;64830;46.910;6.354;2023-06-01T15:09:19;24.04;45.30
76102;SHT30;64830;46.910;6.354;2023-06-01T15:11:45;23.91;45.07
76102;SHT30;64830;46.910;6.354;2023-06-01T15:14:10;23.83;44.64
76102;SHT30;64830;46.910;6.354;2023-06-01T15:16:35;23.80;46.49
76102;SHT30;64830;46.910;6.354;2023-06-01T15:19:01;23.80;45.53
76102;SHT30;64830;46.910;6.354;2023-06-01T15:21:26;23.70;44.57
76102;SHT30;64830;46.910;6.354;2023-06-01T15:23:52;23.60;45.33
76102;SHT30;64830;46.910;6.354;2023-06-01T15:26:17;23.62;47.69
76102;SHT30;64830;46.910;6.354;2023-06-01T15:28:43;23.67;46.61
76102;SHT30;64830;46.910;6.354;2023-06-01T15:31:08;23.73;46.13
76102;SHT30;64830;46.910;6.354;2023-06-01T15:33:33;23.84;45.10
76102;SHT30;64830;46.910;6.354;2023-06-01T15:35:59;23.98;45.64
76102;SHT30;64830;46.910;6.354;2023-06-01T15:38:24;24.21;44.65
76102;SHT30;64830;46.910;6.354;2023-06-01T15:40:49;24.40;43.88
76102;SHT30;64830;46.910;6.354;2023-06-01T15:43:15;24.63;43.87
76102;SHT30;64830;46.910;6.354;2023-06-01T15:45:41;24.76;42.73
76102;SHT30;64830;46.910;6.354;2023-06-01T15:48:06;24.86;42.26
76102;SHT30;64830;46.910;6.354;2023-06-01T15:50:32;24.93;42.14
76102;SHT30;64830;46.910;6.354;2023-06-01T15:52:57;25.04;41.99
76102;SHT30;64830;46.910;6.354;2023-06-01T15:55:22;25.03;41.63
76102;SHT30;64830;46.910;6.354;2023-06-01T15:57:48;25.00;42.01
76102;SHT30;64830;46.910;6.354;2023-06-01T16:00:13;24.91;42.62
76102;SHT30;64830;46.910;6.354;2023-06-01T16:02:39;24.81;42.24
76102;SHT30;64830;46.910;6.354;2023-06-01T16:05:05;24.57;43.98
76102;SHT30;64830;46.910;6.354;2023-06-01T16:07:31;24.48;44.46
76102;SHT30;64830;46.910;6.354;2023-06-01T16:09:56;24.35;43.82
76102;SHT30;64830;46.910;6.354;2023-06-01T16:12:22;24.17;43.24
76102;SHT30;64830;46.910;6.354;2023-06-01T16:14:47;23.94;43.38
76102;SHT30;64830;46.910;6.354;2023-06-01T16:17:13;23.77;44.49